AEA11A LFLL-EDDN
Flight info
| Callsign | AEA11A |
|---|---|
| Flight time | N/A |
| Altitude | 30000 |
| Route | BELUS8S/17R BELUS Z87 SOPLO N871 DITON T163 ZUE T125 ROMIR N851 ESULI Y710 SUDEN Z79 GUPIN N869 DINKU DCT LETKU LETKU1T |
| Aircraft | B738/M-SDE2E3FGHIRWXY/LB1 |
Departure
| Time | 2026-05-05 20:27 |
|---|---|
| Airport | Lyon Saint-Exupéry Airport (LFLL) |
Arrival
| Time | N/A |
|---|---|
| Airport | Nuremberg Airport (EDDN) |
| Time | Latitude | Longitude | Altitude | Speed | Heading |
|---|---|---|---|---|---|
| 2026-05-05 20:15 | 45.71408 | 5.08364 | 805 ft | 0 kts | 86° |
| 2026-05-05 20:20 | 45.71409 | 5.08378 | 805 ft | 1 kts | 87° |
| 2026-05-05 20:21 | 45.71413 | 5.08428 | 806 ft | 7 kts | 82° |
| 2026-05-05 20:21 | 45.71444 | 5.08502 | 807 ft | 12 kts | 15° |
| 2026-05-05 20:21 | 45.71574 | 5.08509 | 805 ft | 25 kts | 359° |
| 2026-05-05 20:21 | 45.71768 | 5.08480 | 802 ft | 28 kts | 357° |
| 2026-05-05 20:22 | 45.71957 | 5.08459 | 800 ft | 26 kts | 354° |
| 2026-05-05 20:22 | 45.72143 | 5.08433 | 798 ft | 26 kts | 354° |
| 2026-05-05 20:22 | 45.72322 | 5.08414 | 795 ft | 26 kts | 355° |
| 2026-05-05 20:22 | 45.72505 | 5.08391 | 790 ft | 26 kts | 355° |
| 2026-05-05 20:23 | 45.72689 | 5.08368 | 786 ft | 26 kts | 355° |
| 2026-05-05 20:23 | 45.72874 | 5.08345 | 782 ft | 26 kts | 355° |
| 2026-05-05 20:23 | 45.73061 | 5.08321 | 778 ft | 27 kts | 354° |
| 2026-05-05 20:23 | 45.73249 | 5.08296 | 774 ft | 27 kts | 356° |
| 2026-05-05 20:24 | 45.73434 | 5.08275 | 772 ft | 26 kts | 356° |
| 2026-05-05 20:24 | 45.73612 | 5.08257 | 769 ft | 25 kts | 356° |
| 2026-05-05 20:24 | 45.73723 | 5.08390 | 769 ft | 22 kts | 91° |
| 2026-05-05 20:24 | 45.73716 | 5.08455 | 769 ft | 0 kts | 103° |
| 2026-05-05 20:25 | 45.73714 | 5.08465 | 769 ft | 4 kts | 103° |
| 2026-05-05 20:25 | 45.73697 | 5.08566 | 771 ft | 16 kts | 104° |
| 2026-05-05 20:26 | 45.73607 | 5.08721 | 775 ft | 18 kts | 173° |
| 2026-05-05 20:26 | 45.73602 | 5.08722 | 774 ft | 0 kts | 174° |
| 2026-05-05 20:26 | 45.73571 | 5.08726 | 775 ft | 24 kts | 174° |
| 2026-05-05 20:26 | 45.73116 | 5.08776 | 784 ft | 94 kts | 176° |
| 2026-05-05 20:27 | 45.72241 | 5.08893 | 803 ft | 159 kts | 174° |
| 2026-05-05 20:27 | 45.71010 | 5.09063 | 1136 ft | 192 kts | 174° |
| 2026-05-05 20:27 | 45.70128 | 5.09218 | 1475 ft | 190 kts | 173° |
| 2026-05-05 20:27 | 45.69277 | 5.09338 | 1820 ft | 181 kts | 178° |